createdAt,value
2023-01-17T00:00:03.776Z,97803.75
2023-01-17T00:02:36.785Z,97800.66
2023-01-17T00:05:20.272Z,97797.47
2023-01-17T00:08:03.183Z,97801.28
2023-01-17T00:10:33.568Z,97806.81
2023-01-17T00:13:05.587Z,97805.03
2023-01-17T00:15:37.409Z,97807.84
2023-01-17T00:18:10.322Z,97804.03
2023-01-17T00:20:52.923Z,97794.84
2023-01-17T00:23:37.766Z,97802.69
2023-01-17T00:26:08.991Z,97799.56
2023-01-17T00:28:38.460Z,97792.34
2023-01-17T00:31:07.960Z,97793.31
2023-01-17T00:33:38.068Z,97789.56
2023-01-17T00:36:06.934Z,97786.56
2023-01-17T00:38:36.616Z,97799.84
2023-01-17T00:41:05.563Z,97784.72
2023-01-17T00:43:48.278Z,97795.34
2023-01-17T00:46:31.058Z,97786.34
2023-01-17T00:49:16.335Z,97775.56
2023-01-17T00:51:58.938Z,97773.94
2023-01-17T00:54:41.534Z,97767.56
2023-01-17T00:57:24.115Z,97754.75
2023-01-17T01:00:07.457Z,97760.16
2023-01-17T01:02:51.107Z,97763.59
2023-01-17T01:05:36.732Z,97763.97
2023-01-17T01:08:30.441Z,97767.56
2023-01-17T01:11:13.043Z,97761.84
2023-01-17T01:13:55.664Z,97759.84
2023-01-17T01:16:38.287Z,97759.84
2023-01-17T01:19:21.608Z,97768.06
2023-01-17T01:22:06.837Z,97751.53
2023-01-17T01:24:49.503Z,97735.00
2023-01-17T01:27:32.222Z,97739.59
2023-01-17T01:30:15.480Z,97732.59
2023-01-17T01:32:58.254Z,97729.38
2023-01-17T01:35:28.812Z,97727.56
2023-01-17T01:38:05.197Z,97726.59
2023-01-17T01:40:35.451Z,97729.38
2023-01-17T01:43:06.159Z,97733.31
2023-01-17T01:45:36.479Z,97735.63
2023-01-17T01:48:10.037Z,97737.44
2023-01-17T01:50:44.246Z,97738.94
2023-01-17T01:53:17.858Z,97728.91
2023-01-17T01:55:52.414Z,97722.53
2023-01-17T01:58:25.981Z,97729.22
2023-01-17T02:00:56.436Z,97708.16
2023-01-17T02:03:32.262Z,97731.53
2023-01-17T02:06:09.721Z,97733.84
2023-01-17T02:08:43.083Z,97733.63
2023-01-17T02:11:14.194Z,97736.25
2023-01-17T02:13:45.955Z,97726.91
2023-01-17T02:16:27.871Z,97720.16
2023-01-17T02:19:08.028Z,97713.94
2023-01-17T02:21:46.394Z,97717.22
2023-01-17T02:24:46.130Z,97720.16
2023-01-17T02:27:27.590Z,97723.31
2023-01-17T02:30:31.701Z,97723.44
2023-01-17T02:33:19.822Z,97726.91
2023-01-17T02:36:04.355Z,97730.50
2023-01-17T02:38:42.917Z,97729.66
2023-01-17T02:41:19.698Z,97732.59
2023-01-17T02:43:52.357Z,97727.81
2023-01-17T02:46:25.255Z,97735.22
2023-01-17T02:48:56.582Z,97730.28
2023-01-17T02:51:49.179Z,97720.31
2023-01-17T02:54:48.846Z,97725.72
2023-01-17T02:57:35.726Z,97728.34
2023-01-17T03:00:15.052Z,97722.63
2023-01-17T03:03:00.353Z,97725.41
2023-01-17T03:05:36.211Z,97729.97
2023-01-17T03:08:08.281Z,97715.91
2023-01-17T03:10:39.427Z,97705.06
2023-01-17T03:13:09.554Z,97714.41
2023-01-17T03:15:39.858Z,97711.78
2023-01-17T03:18:16.427Z,97716.03
2023-01-17T03:20:47.102Z,97721.28
2023-01-17T03:23:17.463Z,97711.94
2023-01-17T03:25:47.641Z,97715.53
2023-01-17T03:28:18.000Z,97703.56
2023-01-17T03:30:52.626Z,97699.13
2023-01-17T03:33:26.609Z,97698.31
2023-01-17T03:35:58.296Z,97695.69
2023-01-17T03:38:28.886Z,97671.88
2023-01-17T03:40:59.478Z,97704.56
2023-01-17T03:43:29.586Z,97702.84
2023-01-17T03:46:05.857Z,97695.22
2023-01-17T03:48:38.694Z,97697.16
2023-01-17T03:51:09.199Z,97684.97
2023-01-17T03:53:39.305Z,97680.56
2023-01-17T03:56:10.535Z,97682.19
2023-01-17T03:58:40.716Z,97668.94
2023-01-17T04:01:11.464Z,97669.78
2023-01-17T04:03:44.510Z,97665.88
2023-01-17T04:06:14.697Z,97670.13
2023-01-17T04:08:45.174Z,97670.59
2023-01-17T04:11:15.366Z,97667.66
2023-01-17T04:13:45.710Z,97661.28
2023-01-17T04:16:19.254Z,97661.13
2023-01-17T04:18:52.177Z,97656.72
2023-01-17T04:21:22.438Z,97658.69
2023-01-17T04:23:52.855Z,97653.13
2023-01-17T04:26:23.018Z,97646.19
2023-01-17T04:28:53.272Z,97650.59
2023-01-17T04:31:23.558Z,97645.53
2023-01-17T04:33:56.393Z,97636.00
2023-01-17T04:36:26.682Z,97626.66
2023-01-17T04:38:56.881Z,97625.69
2023-01-17T04:41:27.122Z,97613.91
2023-01-17T04:43:57.294Z,97597.88
2023-01-17T04:46:27.504Z,97596.91
2023-01-17T04:49:00.702Z,97597.34
2023-01-17T04:51:30.816Z,97587.59
2023-01-17T04:54:01.107Z,97586.16
2023-01-17T04:56:31.294Z,97580.88
2023-01-17T04:59:01.623Z,97570.41
2023-01-17T05:01:34.811Z,97552.59
2023-01-17T05:04:07.974Z,97543.22
2023-01-17T05:06:38.125Z,97532.19
2023-01-17T05:09:08.377Z,97523.81
2023-01-17T05:11:38.586Z,97541.69
2023-01-17T05:14:08.831Z,97544.47
2023-01-17T05:16:39.324Z,97536.59
2023-01-17T05:19:12.074Z,97528.81
2023-01-17T05:21:42.574Z,97543.53
2023-01-17T05:24:12.737Z,97549.28
2023-01-17T05:26:43.394Z,97557.66
2023-01-17T05:29:20.293Z,97562.06
2023-01-17T05:31:52.814Z,97552.72
2023-01-17T05:34:25.591Z,97559.47
2023-01-17T05:36:55.823Z,97567.84
2023-01-17T05:39:26.600Z,97568.66
2023-01-17T05:41:56.809Z,97576.34
2023-01-17T05:44:27.872Z,97578.63
2023-01-17T05:46:58.554Z,97589.78
2023-01-17T05:49:32.085Z,97593.19
2023-01-17T05:52:06.893Z,97608.41
2023-01-17T05:54:37.007Z,97607.59
2023-01-17T05:57:07.298Z,97618.38
2023-01-17T05:59:37.756Z,97619.78
2023-01-17T06:02:08.005Z,97621.28
2023-01-17T06:04:40.866Z,97625.84
2023-01-17T06:07:11.039Z,97627.50
2023-01-17T06:09:41.302Z,97621.22
2023-01-17T06:12:11.434Z,97625.19
2023-01-17T06:14:41.615Z,97620.09
2023-01-17T06:17:11.895Z,97616.81
2023-01-17T06:19:46.823Z,97620.94
2023-01-17T06:22:17.071Z,97622.56
2023-01-17T06:24:47.332Z,97609.69
2023-01-17T06:27:17.525Z,97617.91
2023-01-17T06:29:47.781Z,97607.59
2023-01-17T06:32:18.008Z,97610.56
2023-01-17T06:34:50.800Z,97625.16
2023-01-17T06:37:21.020Z,97627.28
2023-01-17T06:39:51.191Z,97615.16
2023-01-17T06:42:21.407Z,97623.34
2023-01-17T06:44:51.623Z,97619.13
2023-01-17T06:47:21.841Z,97626.50
2023-01-17T06:49:54.783Z,97627.19
2023-01-17T06:52:25.071Z,97626.34
2023-01-17T06:54:55.233Z,97625.22
2023-01-17T06:57:28.545Z,97623.88
2023-01-17T06:59:58.823Z,97626.81
2023-01-17T07:02:29.062Z,97625.69
2023-01-17T07:05:05.334Z,97628.97
2023-01-17T07:07:36.285Z,97634.41
2023-01-17T07:10:07.043Z,97644.75
2023-01-17T07:12:37.329Z,97646.69
2023-01-17T07:15:08.604Z,97649.69
2023-01-17T07:17:38.853Z,97653.13
2023-01-17T07:20:13.670Z,97665.41
2023-01-17T07:22:47.713Z,97665.44
2023-01-17T07:25:18.057Z,97671.66
2023-01-17T07:27:48.253Z,97667.44
2023-01-17T07:30:19.229Z,97666.00
2023-01-17T07:32:54.192Z,97670.09
2023-01-17T07:35:28.892Z,97671.22
2023-01-17T07:37:59.126Z,97676.06
2023-01-17T07:40:29.298Z,97675.84
2023-01-17T07:43:03.937Z,97685.50
2023-01-17T07:45:34.178Z,97691.75
2023-01-17T07:48:04.409Z,97682.06
2023-01-17T07:50:37.412Z,97697.97
2023-01-17T07:53:08.210Z,97703.25
2023-01-17T07:55:38.366Z,97702.72
2023-01-17T07:58:08.677Z,97707.63
2023-01-17T08:00:39.139Z,97709.56
2023-01-17T08:03:09.503Z,97710.41
2023-01-17T08:05:42.330Z,97713.25
2023-01-17T08:08:12.751Z,97710.63
2023-01-17T08:10:43.030Z,97722.81
2023-01-17T08:13:13.363Z,97720.03
2023-01-17T08:15:43.712Z,97713.91
2023-01-17T08:18:13.839Z,97711.91
2023-01-17T08:20:47.160Z,97711.50
2023-01-17T08:23:17.589Z,97713.81
2023-01-17T08:25:47.789Z,97715.09
2023-01-17T08:28:19.934Z,97710.31
2023-01-17T08:30:50.131Z,97721.97
2023-01-17T08:33:20.326Z,97715.78
2023-01-17T08:35:59.028Z,97715.44
2023-01-17T08:38:29.199Z,97717.91
2023-01-17T08:41:02.864Z,97708.59
2023-01-17T08:43:33.103Z,97707.16
2023-01-17T08:46:06.481Z,97722.75
2023-01-17T08:48:36.697Z,97721.25
2023-01-17T08:51:10.130Z,97715.72
2023-01-17T08:53:40.863Z,97723.31
2023-01-17T08:56:12.159Z,97721.81
2023-01-17T08:58:42.361Z,97723.47
2023-01-17T09:01:12.915Z,97731.97
2023-01-17T09:03:43.261Z,97730.38
2023-01-17T09:06:18.330Z,97736.28
2023-01-17T09:08:49.775Z,97752.69
2023-01-17T09:11:20.677Z,97738.72
2023-01-17T09:13:50.930Z,97759.28
2023-01-17T09:16:21.153Z,97760.75
2023-01-17T09:18:51.655Z,97760.59
2023-01-17T09:21:27.769Z,97765.66
2023-01-17T09:23:58.558Z,97771.56
2023-01-17T09:26:30.349Z,97775.03
2023-01-17T09:29:01.548Z,97771.59
2023-01-17T09:31:31.876Z,97770.84
2023-01-17T09:34:02.478Z,97778.06
2023-01-17T09:36:35.387Z,97790.06
2023-01-17T09:39:06.286Z,97779.94
2023-01-17T09:41:39.149Z,97764.84
2023-01-17T09:44:20.857Z,97788.84
2023-01-17T09:46:53.288Z,97793.03
2023-01-17T09:49:38.017Z,97791.72
2023-01-17T09:52:14.774Z,97790.72
2023-01-17T09:54:47.125Z,97785.78
2023-01-17T09:57:31.570Z,97802.06
2023-01-17T10:00:09.251Z,97797.28
2023-01-17T10:02:57.613Z,97793.84
2023-01-17T10:05:53.327Z,97795.81
2023-01-17T10:08:43.476Z,97796.44
2023-01-17T10:11:29.445Z,97794.81
2023-01-17T10:14:10.128Z,97794.97
2023-01-17T10:16:49.086Z,97801.47
2023-01-17T10:19:34.329Z,97811.16
2023-01-17T10:22:20.245Z,97818.88
2023-01-17T10:25:19.087Z,97825.25
2023-01-17T10:27:57.045Z,97835.09
2023-01-17T10:30:32.003Z,97834.44
2023-01-17T10:33:06.359Z,97829.34
2023-01-17T10:35:41.017Z,97831.56
2023-01-17T10:38:17.974Z,97836.28
2023-01-17T10:40:55.019Z,97840.25
2023-01-17T10:43:31.384Z,97839.44
2023-01-17T10:46:01.700Z,97841.34
2023-01-17T10:48:42.581Z,97838.69
2023-01-17T10:51:24.705Z,97834.06
2023-01-17T10:54:08.046Z,97823.56
2023-01-17T10:56:43.174Z,97821.78
2023-01-17T10:59:26.002Z,97826.56
2023-01-17T11:01:56.898Z,97837.75
2023-01-17T11:04:36.677Z,97835.78
2023-01-17T11:07:15.321Z,97844.31
2023-01-17T11:09:47.034Z,97835.16
2023-01-17T11:12:27.946Z,97814.22
2023-01-17T11:15:04.030Z,97818.69
2023-01-17T11:17:35.537Z,97816.91
2023-01-17T11:20:20.230Z,97804.78
2023-01-17T11:23:09.159Z,97816.31
2023-01-17T11:25:40.161Z,97827.19
2023-01-17T11:28:24.217Z,97824.06
2023-01-17T11:30:56.066Z,97825.25
2023-01-17T11:33:45.449Z,97816.69
2023-01-17T11:36:24.751Z,97815.38
2023-01-17T11:39:00.155Z,97808.78
2023-01-17T11:41:35.118Z,97798.28
2023-01-17T11:44:25.119Z,97804.28
2023-01-17T11:47:19.941Z,97797.53
2023-01-17T11:49:51.753Z,97783.06
2023-01-17T11:52:27.426Z,97784.81
2023-01-17T11:54:58.852Z,97793.19
2023-01-17T11:57:31.964Z,97807.50
2023-01-17T12:00:16.780Z,97816.53
2023-01-17T12:03:07.164Z,97810.06
2023-01-17T12:05:54.799Z,97810.34
2023-01-17T12:08:38.614Z,97799.78
2023-01-17T12:11:17.319Z,97801.25
2023-01-17T12:14:02.665Z,97808.81
2023-01-17T12:16:47.825Z,97817.34
2023-01-17T12:19:42.477Z,97820.75
2023-01-17T12:22:35.165Z,97818.19
2023-01-17T12:25:32.071Z,97808.47
2023-01-17T12:28:19.007Z,97817.88
2023-01-17T12:31:09.719Z,97816.31
2023-01-17T12:33:51.223Z,97814.28
2023-01-17T12:36:37.410Z,97818.59
2023-01-17T12:39:14.431Z,97826.84
2023-01-17T12:42:00.013Z,97845.44
2023-01-17T12:44:44.412Z,97858.59
2023-01-17T12:47:17.421Z,97856.44
2023-01-17T12:49:57.637Z,97857.47
2023-01-17T12:52:41.173Z,97854.81
2023-01-17T12:55:19.401Z,97858.09
2023-01-17T12:57:59.095Z,97851.19
2023-01-17T13:00:31.549Z,97854.94
2023-01-17T13:03:10.700Z,97857.25
2023-01-17T13:05:48.748Z,97853.47
2023-01-17T13:08:28.226Z,97849.38
2023-01-17T13:11:03.885Z,97851.66
2023-01-17T13:13:35.879Z,97857.28
2023-01-17T13:16:13.487Z,97856.91
2023-01-17T13:18:48.655Z,97852.03
2023-01-17T13:21:35.954Z,97850.06
2023-01-17T13:24:22.075Z,97856.47
2023-01-17T13:27:07.659Z,97860.56
2023-01-17T13:29:49.610Z,97871.25
2023-01-17T13:32:41.775Z,97870.41
2023-01-17T13:35:23.184Z,97867.28
2023-01-17T13:38:16.333Z,97861.66
2023-01-17T13:40:53.717Z,97873.31
2023-01-17T13:43:29.618Z,97875.63
2023-01-17T13:46:05.098Z,97879.97
2023-01-17T13:48:38.326Z,97874.03
2023-01-17T13:51:10.205Z,97876.13
2023-01-17T13:54:05.278Z,97880.09
2023-01-17T13:56:39.976Z,97879.72
2023-01-17T13:59:32.063Z,97875.56
2023-01-17T14:02:03.343Z,97875.19
2023-01-17T14:05:03.520Z,97888.47
2023-01-17T14:07:37.513Z,97880.41
2023-01-17T14:10:31.758Z,97899.75
2023-01-17T14:13:02.424Z,97896.09
2023-01-17T14:15:36.568Z,97897.41
2023-01-17T14:18:08.348Z,97897.41
2023-01-17T14:20:53.191Z,97888.72
2023-01-17T14:23:49.397Z,97894.78
2023-01-17T14:26:36.799Z,97893.94
2023-01-17T14:29:36.847Z,97890.34
2023-01-17T14:32:11.770Z,97881.97
2023-01-17T14:34:42.035Z,97881.44
2023-01-17T14:37:21.336Z,97884.22
2023-01-17T14:39:53.672Z,97886.84
2023-01-17T14:42:28.548Z,97883.41
2023-01-17T14:45:04.911Z,97877.63
2023-01-17T14:47:39.443Z,97866.78
2023-01-17T14:50:25.187Z,97845.59
2023-01-17T14:53:17.640Z,97842.00
2023-01-17T14:56:00.489Z,97845.91
2023-01-17T14:58:37.774Z,97833.63
2023-01-17T15:01:13.860Z,97814.06
2023-01-17T15:03:49.613Z,97807.94
2023-01-17T15:06:23.734Z,97800.09
2023-01-17T15:08:54.780Z,97795.50
2023-01-17T15:11:29.869Z,97792.72
2023-01-17T15:14:05.950Z,97783.53
2023-01-17T15:16:38.657Z,97774.00
2023-01-17T15:19:15.269Z,97781.72
2023-01-17T15:21:50.719Z,97775.72
2023-01-17T15:24:23.336Z,97777.75
2023-01-17T15:26:54.709Z,97783.16
2023-01-17T15:29:30.346Z,97787.59
2023-01-17T15:32:02.601Z,97774.31
2023-01-17T15:34:34.933Z,97784.81
2023-01-17T15:37:08.872Z,97782.81
2023-01-17T15:39:40.341Z,97787.63
2023-01-17T15:42:21.257Z,97795.41
2023-01-17T15:44:57.771Z,97804.59
2023-01-17T15:47:34.315Z,97802.59
2023-01-17T15:50:26.774Z,97797.88
2023-01-17T15:53:01.034Z,97799.00
2023-01-17T15:55:35.275Z,97797.91
2023-01-17T15:58:07.441Z,97787.91
2023-01-17T16:00:45.278Z,97808.19
2023-01-17T16:03:25.648Z,97811.22
2023-01-17T16:05:57.953Z,97814.53
2023-01-17T16:08:33.990Z,97800.03
2023-01-17T16:11:08.604Z,97787.38
2023-01-17T16:13:43.422Z,97796.06
2023-01-17T16:16:20.312Z,97793.50
2023-01-17T16:18:52.166Z,97785.16
2023-01-17T16:21:30.080Z,97779.78
2023-01-17T16:24:01.475Z,97772.84
2023-01-17T16:26:31.853Z,97773.53
2023-01-17T16:29:02.036Z,97766.63
2023-01-17T16:31:35.572Z,97758.59
2023-01-17T16:34:08.500Z,97755.16
2023-01-17T16:36:38.694Z,97750.53
2023-01-17T16:39:09.405Z,97753.66
2023-01-17T16:41:39.598Z,97742.00
2023-01-17T16:44:09.813Z,97744.06
2023-01-17T16:46:42.635Z,97737.69
2023-01-17T16:49:13.162Z,97742.47
2023-01-17T16:51:43.543Z,97739.84
2023-01-17T16:54:13.915Z,97736.25
2023-01-17T16:56:44.058Z,97743.97
2023-01-17T16:59:14.575Z,97745.59
2023-01-17T17:01:49.454Z,97755.94
2023-01-17T17:04:19.743Z,97746.66
2023-01-17T17:06:49.927Z,97732.13
2023-01-17T17:09:22.044Z,97728.38
2023-01-17T17:11:52.618Z,97714.84
2023-01-17T17:14:25.835Z,97713.13
2023-01-17T17:17:02.455Z,97713.84
2023-01-17T17:19:33.652Z,97715.34
2023-01-17T17:22:06.753Z,97717.63
2023-01-17T17:24:36.929Z,97718.63
2023-01-17T17:27:07.197Z,97712.72
2023-01-17T17:29:37.566Z,97695.88
2023-01-17T17:32:11.744Z,97695.81
2023-01-17T17:34:41.882Z,97687.41
2023-01-17T17:37:12.227Z,97686.97
2023-01-17T17:39:42.645Z,97672.41
2023-01-17T17:42:13.663Z,97663.22
2023-01-17T17:44:43.942Z,97667.97
2023-01-17T17:47:18.027Z,97661.44
2023-01-17T17:49:48.883Z,97662.28
2023-01-17T17:52:19.211Z,97657.09
2023-01-17T17:54:50.749Z,97664.03
2023-01-17T17:57:20.932Z,97661.41
2023-01-17T17:59:51.354Z,97668.50
2023-01-17T18:02:25.536Z,97658.75
2023-01-17T18:04:55.765Z,97659.22
2023-01-17T18:07:26.277Z,97657.19
2023-01-17T18:09:57.803Z,97649.03
2023-01-17T18:12:28.150Z,97644.75
2023-01-17T18:14:58.463Z,97644.31
2023-01-17T18:17:32.515Z,97635.09
2023-01-17T18:20:04.320Z,97622.13
2023-01-17T18:22:36.358Z,97612.38
2023-01-17T18:25:11.710Z,97602.81
2023-01-17T18:27:42.567Z,97592.28
2023-01-17T18:30:15.501Z,97573.19
2023-01-17T18:32:51.338Z,97563.28
2023-01-17T18:35:21.837Z,97550.56
2023-01-17T18:37:52.547Z,97555.28
2023-01-17T18:40:26.198Z,97546.44
2023-01-17T18:42:57.016Z,97543.13
2023-01-17T18:45:27.485Z,97526.66
2023-01-17T18:48:02.713Z,97506.47
2023-01-17T18:50:33.552Z,97497.28
2023-01-17T18:53:04.050Z,97484.06
2023-01-17T18:55:34.589Z,97478.16
2023-01-17T18:58:09.266Z,97471.28
2023-01-17T19:00:39.952Z,97462.72
2023-01-17T19:03:16.085Z,97464.00
2023-01-17T19:05:46.805Z,97446.53
2023-01-17T19:08:18.822Z,97433.97
2023-01-17T19:10:49.441Z,97431.41
2023-01-17T19:13:19.933Z,97416.47
2023-01-17T19:15:50.981Z,97413.19
2023-01-17T19:18:24.049Z,97395.06
2023-01-17T19:20:54.532Z,97403.34
2023-01-17T19:23:25.353Z,97398.63
2023-01-17T19:25:57.041Z,97399.06
2023-01-17T19:28:29.126Z,97390.28
2023-01-17T19:31:07.811Z,97396.16
2023-01-17T19:33:43.761Z,97381.81
2023-01-17T19:36:17.328Z,97387.38
2023-01-17T19:39:03.418Z,97394.06
2023-01-17T19:41:35.995Z,97376.22
2023-01-17T19:44:08.764Z,97368.56
2023-01-17T19:46:40.226Z,97357.75
2023-01-17T19:49:19.829Z,97359.38
2023-01-17T19:51:51.510Z,97351.53
2023-01-17T19:54:23.400Z,97355.97
2023-01-17T19:56:54.051Z,97332.91
2023-01-17T19:59:24.526Z,97343.72
2023-01-17T20:01:55.908Z,97334.69
2023-01-17T20:04:29.441Z,97334.22
2023-01-17T20:07:01.177Z,97319.31
2023-01-17T20:09:31.843Z,97315.84
2023-01-17T20:12:02.366Z,97319.97
2023-01-17T20:14:32.726Z,97323.41
2023-01-17T20:17:03.756Z,97292.47
2023-01-17T20:19:36.951Z,97261.50
2023-01-17T20:22:08.018Z,97271.69
2023-01-17T20:24:38.279Z,97273.16
2023-01-17T20:27:08.622Z,97255.78
2023-01-17T20:29:41.193Z,97255.41
2023-01-17T20:32:11.528Z,97230.41
2023-01-17T20:34:45.518Z,97252.47
2023-01-17T20:37:16.098Z,97240.34
2023-01-17T20:39:48.081Z,97194.81
2023-01-17T20:42:18.879Z,97205.88
2023-01-17T20:44:51.043Z,97205.28
2023-01-17T20:47:21.422Z,97196.38
2023-01-17T20:49:55.005Z,97165.00
2023-01-17T20:52:28.391Z,97186.03
2023-01-17T20:54:58.953Z,97165.25
2023-01-17T20:57:31.489Z,97155.44
2023-01-17T21:00:01.666Z,97152.34
2023-01-17T21:02:32.266Z,97166.41
2023-01-17T21:05:05.194Z,97172.50
2023-01-17T21:07:35.430Z,97165.63
2023-01-17T21:10:05.997Z,97172.69
2023-01-17T21:12:36.741Z,97164.25
2023-01-17T21:15:08.626Z,97142.31
2023-01-17T21:17:42.458Z,97153.94
2023-01-17T21:20:16.892Z,97143.88
2023-01-17T21:22:47.263Z,97135.91
2023-01-17T21:25:19.574Z,97131.94
2023-01-17T21:27:49.961Z,97118.88
2023-01-17T21:30:20.386Z,97116.00
2023-01-17T21:32:50.853Z,97121.63
2023-01-17T21:35:23.620Z,97109.59
2023-01-17T21:37:54.404Z,97090.09
2023-01-17T21:40:25.470Z,97087.34
2023-01-17T21:42:55.816Z,97095.38
2023-01-17T21:45:26.367Z,97084.66
2023-01-17T21:47:57.421Z,97085.00
2023-01-17T21:50:33.567Z,97072.06
2023-01-17T21:53:04.226Z,97077.31
2023-01-17T21:55:46.824Z,97067.44
2023-01-17T21:58:30.846Z,97088.09
2023-01-17T22:01:09.028Z,97090.66
2023-01-17T22:03:39.756Z,97063.91
2023-01-17T22:06:13.088Z,97077.03
2023-01-17T22:08:43.415Z,97063.72
2023-01-17T22:11:16.641Z,97052.84
2023-01-17T22:13:48.034Z,97069.25
2023-01-17T22:16:20.239Z,97052.59
2023-01-17T22:18:54.077Z,97052.41
2023-01-17T22:21:28.377Z,97053.66
2023-01-17T22:24:00.350Z,97045.22
2023-01-17T22:26:32.991Z,97055.09
2023-01-17T22:29:04.615Z,97055.50
2023-01-17T22:31:38.915Z,97042.59
2023-01-17T22:34:09.162Z,97032.53
2023-01-17T22:36:42.572Z,97033.66
2023-01-17T22:39:13.425Z,97035.69
2023-01-17T22:41:43.757Z,97015.78
2023-01-17T22:44:14.541Z,97030.03
2023-01-17T22:46:44.835Z,97029.06
2023-01-17T22:49:17.154Z,97027.91
2023-01-17T22:51:50.150Z,97023.63
2023-01-17T22:54:20.354Z,97033.25
2023-01-17T22:56:50.610Z,97022.56
2023-01-17T22:59:20.798Z,97023.91
2023-01-17T23:01:52.223Z,97028.16
2023-01-17T23:04:22.446Z,97027.53
2023-01-17T23:06:55.361Z,97024.16
2023-01-17T23:09:25.629Z,97017.28
2023-01-17T23:11:57.169Z,97021.53
2023-01-17T23:14:29.016Z,97012.91
2023-01-17T23:17:15.824Z,97016.53
2023-01-17T23:19:48.320Z,97016.53
2023-01-17T23:22:23.357Z,97018.41
2023-01-17T23:24:54.862Z,97011.16
2023-01-17T23:27:40.026Z,97010.53
2023-01-17T23:30:13.592Z,97018.59
2023-01-17T23:32:47.631Z,97006.44
2023-01-17T23:35:20.561Z,96997.97
2023-01-17T23:38:05.926Z,97007.25
2023-01-17T23:40:38.336Z,97005.44
2023-01-17T23:43:21.703Z,97019.66
2023-01-17T23:45:54.087Z,97021.31
2023-01-17T23:48:30.116Z,97011.34
2023-01-17T23:51:02.443Z,97001.19
2023-01-17T23:53:35.522Z,96997.44
2023-01-17T23:56:09.715Z,96995.25
2023-01-17T23:58:40.378Z,96986.00
